createdAt,value
2022-10-16T00:00:46.934Z,94122.66
2022-10-16T00:05:49.699Z,94124.91
2022-10-16T00:10:51.560Z,94113.13
2022-10-16T00:15:57.230Z,94123.28
2022-10-16T00:21:07.462Z,94106.19
2022-10-16T00:26:12.441Z,94103.31
2022-10-16T00:31:15.068Z,94090.53
2022-10-16T00:36:19.768Z,94100.81
2022-10-16T00:41:24.012Z,94125.38
2022-10-16T00:46:33.371Z,94123.41
2022-10-16T00:51:36.612Z,94102.34
2022-10-16T00:56:38.706Z,94110.41
2022-10-16T01:01:40.833Z,94124.00
2022-10-16T01:07:01.279Z,94126.56
2022-10-16T01:12:15.160Z,94128.81
2022-10-16T01:17:21.005Z,94112.53
2022-10-16T01:22:27.266Z,94110.03
2022-10-16T01:27:30.487Z,94114.50
2022-10-16T01:32:47.983Z,94146.38
2022-10-16T01:37:51.572Z,94146.69
2022-10-16T01:43:09.802Z,94145.13
2022-10-16T01:48:13.863Z,94125.94
2022-10-16T01:53:16.994Z,94136.72
2022-10-16T01:58:19.093Z,94138.59
2022-10-16T02:03:21.988Z,94125.66
2022-10-16T02:08:26.065Z,94132.09
2022-10-16T02:13:41.976Z,94142.09
2022-10-16T02:18:44.532Z,94123.06
2022-10-16T02:23:55.630Z,94146.03
2022-10-16T02:29:02.837Z,94138.09
2022-10-16T02:34:06.253Z,94149.88
2022-10-16T02:39:08.318Z,94158.75
2022-10-16T02:44:10.157Z,94139.63
2022-10-16T02:49:12.118Z,94137.25
2022-10-16T02:54:14.296Z,94153.63
2022-10-16T02:59:16.519Z,94168.44
2022-10-16T03:04:18.685Z,94151.56
2022-10-16T03:09:20.522Z,94157.03
2022-10-16T03:14:22.749Z,94163.94
2022-10-16T03:19:24.750Z,94172.34
2022-10-16T03:24:26.729Z,94166.63
2022-10-16T03:29:30.488Z,94166.69
2022-10-16T03:34:32.554Z,94167.66
2022-10-16T03:39:34.539Z,94168.06
2022-10-16T03:44:36.480Z,94158.56
2022-10-16T03:49:38.323Z,94167.66
2022-10-16T03:54:40.187Z,94129.53
2022-10-16T03:59:42.082Z,94156.94
2022-10-16T04:04:44.002Z,94153.00
2022-10-16T04:09:45.939Z,94146.78
2022-10-16T04:14:47.792Z,94151.72
2022-10-16T04:19:49.659Z,94155.28
2022-10-16T04:24:51.702Z,94152.53
2022-10-16T04:29:53.740Z,94179.25
2022-10-16T04:34:55.677Z,94170.31
2022-10-16T04:39:57.830Z,94177.03
2022-10-16T04:44:59.826Z,94159.84
2022-10-16T04:50:03.532Z,94178.56
2022-10-16T04:55:06.374Z,94149.25
2022-10-16T05:00:09.332Z,94173.69
2022-10-16T05:05:13.006Z,94172.78
2022-10-16T05:10:14.954Z,94141.81
2022-10-16T05:15:16.916Z,94162.47
2022-10-16T05:20:18.923Z,94181.72
2022-10-16T05:25:21.025Z,94198.56
2022-10-16T05:30:23.257Z,94194.91
2022-10-16T05:35:25.215Z,94192.91
2022-10-16T05:40:27.192Z,94196.41
2022-10-16T05:45:28.959Z,94174.34
2022-10-16T05:50:30.955Z,94196.31
2022-10-16T05:55:32.829Z,94197.53
2022-10-16T06:00:34.739Z,94217.06
2022-10-16T06:05:36.669Z,94215.41
2022-10-16T06:10:38.663Z,94195.22
2022-10-16T06:15:42.956Z,94226.47
2022-10-16T06:20:44.719Z,94237.19
2022-10-16T06:25:46.631Z,94232.59
2022-10-16T06:30:48.726Z,94220.22
2022-10-16T06:35:50.904Z,94225.00
2022-10-16T06:40:54.957Z,94247.19
2022-10-16T06:45:57.842Z,94229.25
2022-10-16T06:51:17.785Z,94249.78
2022-10-16T06:56:25.639Z,94258.25
2022-10-16T07:01:28.011Z,94260.28
2022-10-16T07:06:36.664Z,94261.06
2022-10-16T07:11:40.383Z,94251.78
2022-10-16T07:16:42.296Z,94274.78
2022-10-16T07:21:44.890Z,94259.69
2022-10-16T07:26:47.693Z,94262.13
2022-10-16T07:31:50.468Z,94270.41
2022-10-16T07:36:52.551Z,94287.47
2022-10-16T07:41:54.681Z,94270.59
2022-10-16T07:46:56.659Z,94290.78
2022-10-16T07:51:58.715Z,94287.09
2022-10-16T07:57:00.627Z,94291.31
2022-10-16T08:02:02.569Z,94299.44
2022-10-16T08:07:04.621Z,94319.84
2022-10-16T08:12:06.565Z,94321.94
2022-10-16T08:17:08.393Z,94350.66
2022-10-16T08:22:10.684Z,94340.31
2022-10-16T08:27:12.802Z,94353.44
2022-10-16T08:32:15.051Z,94364.41
2022-10-16T08:37:16.993Z,94357.38
2022-10-16T08:42:53.714Z,94363.00
2022-10-16T08:47:58.356Z,94372.06
2022-10-16T08:53:00.288Z,94342.97
2022-10-16T08:58:02.315Z,94357.16
2022-10-16T09:03:25.388Z,94356.09
2022-10-16T09:08:35.229Z,94348.75
2022-10-16T09:13:55.534Z,94355.19
2022-10-16T09:19:09.317Z,94374.00
2022-10-16T09:24:20.351Z,94343.75
2022-10-16T09:29:22.899Z,94344.88
2022-10-16T09:34:33.783Z,94345.09
2022-10-16T09:39:55.094Z,94318.06
2022-10-16T09:44:57.780Z,94318.13
2022-10-16T09:50:07.238Z,94337.22
2022-10-16T09:55:17.943Z,94309.22
2022-10-16T10:00:20.288Z,94326.66
2022-10-16T10:05:27.419Z,94336.31
2022-10-16T10:10:31.708Z,94322.69
2022-10-16T10:15:36.144Z,94317.34
2022-10-16T10:20:39.833Z,94306.97
2022-10-16T10:25:41.866Z,94325.56
2022-10-16T10:31:05.746Z,94331.84
2022-10-16T10:36:14.503Z,94308.31
2022-10-16T10:41:31.832Z,94309.59
2022-10-16T10:46:46.473Z,94309.25
2022-10-16T10:52:06.338Z,94307.75
2022-10-16T10:57:16.580Z,94292.94
2022-10-16T11:02:27.115Z,94327.78
2022-10-16T11:07:32.493Z,94321.66
2022-10-16T11:12:41.827Z,94333.09
2022-10-16T11:18:07.005Z,94328.06
2022-10-16T11:23:29.223Z,94335.53
2022-10-16T11:28:35.675Z,94316.94
2022-10-16T11:33:58.733Z,94307.28
2022-10-16T11:39:26.979Z,94315.38
2022-10-16T11:44:44.230Z,94297.91
2022-10-16T11:49:47.320Z,94285.50
2022-10-16T11:54:59.138Z,94287.06
2022-10-16T12:00:07.073Z,94292.47
2022-10-16T12:05:25.786Z,94283.22
2022-10-16T12:10:29.878Z,94275.44
2022-10-16T12:15:57.775Z,94293.28
2022-10-16T12:21:05.559Z,94278.47
2022-10-16T12:26:07.653Z,94307.59
2022-10-16T12:31:13.430Z,94293.59
2022-10-16T12:36:27.140Z,94287.75
2022-10-16T12:41:34.431Z,94265.97
2022-10-16T12:46:40.019Z,94237.66
2022-10-16T12:51:42.883Z,94271.28
2022-10-16T12:57:22.220Z,94260.28
2022-10-16T13:03:07.715Z,94248.50
2022-10-16T13:08:57.264Z,94238.97
2022-10-16T13:14:17.314Z,94242.69
2022-10-16T13:19:19.085Z,94184.25
2022-10-16T13:24:26.821Z,94200.31
2022-10-16T13:29:35.109Z,94176.09
2022-10-16T13:34:49.657Z,94200.63
2022-10-16T13:39:54.367Z,94181.63
2022-10-16T13:44:57.689Z,94185.19
2022-10-16T13:50:06.629Z,94187.50
2022-10-16T13:55:14.022Z,94172.25
2022-10-16T14:00:31.102Z,94157.78
2022-10-16T14:05:33.409Z,94151.09
2022-10-16T14:10:35.746Z,94168.59
2022-10-16T14:15:38.064Z,94168.28
2022-10-16T14:20:40.240Z,94176.88
2022-10-16T14:25:42.174Z,94198.63
2022-10-16T14:30:56.144Z,94189.25
2022-10-16T14:36:13.769Z,94187.81
2022-10-16T14:41:16.169Z,94164.50
2022-10-16T14:51:27.541Z,94148.63
2022-10-16T14:56:35.824Z,94128.69
2022-10-16T15:01:37.728Z,94138.66
2022-10-16T15:06:39.736Z,94135.75
2022-10-16T15:11:42.810Z,94166.28
2022-10-16T15:16:44.518Z,94156.38
2022-10-16T15:21:46.460Z,94143.09
2022-10-16T15:26:48.596Z,94152.75
2022-10-16T15:31:50.409Z,94156.06
2022-10-16T15:36:52.301Z,94151.34
2022-10-16T15:41:54.490Z,94123.84
2022-10-16T15:46:56.939Z,94130.06
2022-10-16T15:51:58.833Z,94126.16
2022-10-16T15:57:00.786Z,94126.88
2022-10-16T16:02:02.577Z,94120.28
2022-10-16T16:07:04.589Z,94118.75
2022-10-16T16:12:06.697Z,94108.69
2022-10-16T16:17:09.398Z,94106.38
2022-10-16T16:22:13.320Z,94109.19
2022-10-16T16:27:15.341Z,94096.59
2022-10-16T16:32:17.185Z,94108.31
2022-10-16T16:37:19.043Z,94116.59
2022-10-16T16:42:20.909Z,94124.81
2022-10-16T16:47:22.805Z,94128.41
2022-10-16T16:52:24.837Z,94121.84
2022-10-16T16:57:26.863Z,94127.31
2022-10-16T17:02:28.802Z,94122.72
2022-10-16T17:07:33.843Z,94122.72
2022-10-16T17:12:37.647Z,94118.97
2022-10-16T17:17:39.838Z,94124.03
2022-10-16T17:22:41.746Z,94129.09
2022-10-16T17:27:43.588Z,94111.31
2022-10-16T17:32:45.363Z,94114.06
2022-10-16T17:37:47.246Z,94097.13
2022-10-16T17:42:49.141Z,94118.09
2022-10-16T17:47:50.940Z,94125.47
2022-10-16T17:52:52.930Z,94135.56
2022-10-16T17:57:54.756Z,94120.91
2022-10-16T18:02:56.909Z,94154.22
2022-10-16T18:07:58.876Z,94143.78
2022-10-16T18:13:01.780Z,94125.56
2022-10-16T18:18:03.714Z,94145.72
2022-10-16T18:23:05.721Z,94167.03
2022-10-16T18:28:08.242Z,94163.91
2022-10-16T18:33:10.159Z,94155.00
2022-10-16T18:38:12.004Z,94154.25
2022-10-16T18:43:14.004Z,94156.94
2022-10-16T18:48:15.877Z,94142.97
2022-10-16T18:53:17.985Z,94149.91
2022-10-16T18:58:20.050Z,94170.44
2022-10-16T19:03:21.915Z,94150.66
2022-10-16T19:08:23.950Z,94169.63
2022-10-16T19:13:25.779Z,94159.94
2022-10-16T19:18:28.516Z,94169.97
2022-10-16T19:23:30.473Z,94181.53
2022-10-16T19:28:32.711Z,94168.75
2022-10-16T19:33:35.131Z,94192.00
2022-10-16T19:38:37.109Z,94181.94
2022-10-16T19:43:39.083Z,94185.44
2022-10-16T19:48:42.042Z,94184.97
2022-10-16T19:53:45.213Z,94196.63
2022-10-16T19:58:47.628Z,94182.66
2022-10-16T20:03:50.452Z,94206.31
2022-10-16T20:08:53.701Z,94222.91
2022-10-16T20:13:55.984Z,94241.00
2022-10-16T20:18:59.241Z,94247.94
2022-10-16T20:24:04.522Z,94272.38
2022-10-16T20:29:07.362Z,94237.00
2022-10-16T20:34:11.642Z,94268.00
2022-10-16T20:39:16.275Z,94247.78
2022-10-16T20:44:18.238Z,94277.94
2022-10-16T20:49:35.917Z,94271.31
2022-10-16T20:54:44.886Z,94273.72
2022-10-16T20:59:48.929Z,94268.28
2022-10-16T21:04:50.964Z,94243.06
2022-10-16T21:09:55.759Z,94256.16
2022-10-16T21:15:13.852Z,94274.75
2022-10-16T21:20:17.328Z,94283.56
2022-10-16T21:25:19.259Z,94314.13
2022-10-16T21:30:21.066Z,94301.63
2022-10-16T21:35:23.036Z,94314.38
2022-10-16T21:40:24.962Z,94328.47
2022-10-16T21:45:26.957Z,94319.84
2022-10-16T21:50:28.872Z,94312.31
2022-10-16T21:55:30.752Z,94329.00
2022-10-16T22:00:32.667Z,94302.31
2022-10-16T22:05:57.340Z,94301.19
2022-10-16T22:11:17.786Z,94307.81
2022-10-16T22:16:23.652Z,94293.91
2022-10-16T22:21:26.988Z,94296.97
2022-10-16T22:26:29.032Z,94310.91
2022-10-16T22:31:34.093Z,94305.03
2022-10-16T22:36:38.549Z,94286.41
2022-10-16T22:41:40.356Z,94291.78
2022-10-16T22:46:42.379Z,94316.53
2022-10-16T22:51:44.618Z,94282.78
2022-10-16T22:56:46.531Z,94319.94
2022-10-16T23:01:48.484Z,94339.50
2022-10-16T23:06:50.392Z,94345.84
2022-10-16T23:11:52.371Z,94337.53
2022-10-16T23:16:54.141Z,94327.81
2022-10-16T23:21:55.924Z,94278.88
2022-10-16T23:26:57.774Z,94314.22
2022-10-16T23:31:59.670Z,94329.94
2022-10-16T23:37:03.856Z,94331.13
2022-10-16T23:42:05.672Z,94337.59
2022-10-16T23:47:07.638Z,94411.91
2022-10-16T23:52:09.672Z,94446.66
2022-10-16T23:57:11.786Z,94478.06
